Time;durP1;ratioP1;P1;durP2;ratioP2;P2;SDS_P1;SDS_P2;PMS_P1;PMS_P2;Temp;Humidity;BMP_temperature;BMP_pressure;BME280_temperature;BME280_humidity;BME280_pressure;Samples;Min_cycle;Max_cycle;Signal;HPM_P1;HPM_P2
2022/10/11 05:31:15;;;;;;;22.35;11.65;;;;;;;;;;4949350;23;20413;-65
2022/10/11 05:33:41;;;;;;;19.92;10.38;;;;;;;;;;4972204;28;20034;-70
2022/10/11 05:36:08;;;;;;;17.63;9.70;;;;;;;;;;4972497;28;20535;-64
2022/10/11 05:38:34;;;;;;;16.63;8.98;;;;;;;;;;4975738;28;20035;-65
2022/10/11 05:41:01;;;;;;;19.58;8.43;;;;;;;;;;4976137;28;20035;-65
2022/10/11 05:43:27;;;;;;;15.20;8.10;;;;;;;;;;4974043;28;20117;-67
2022/10/11 05:45:53;;;;;;;14.95;8.65;;;;;;;;;;4975523;28;20070;-62
2022/10/11 05:48:20;;;;;;;21.45;9.52;;;;;;;;;;4975724;28;20041;-64
2022/10/11 05:50:46;;;;;;;17.55;9.75;;;;;;;;;;4975729;28;20027;-65
2022/10/11 05:53:12;;;;;;;17.90;9.60;;;;;;;;;;4975819;28;20039;-63
2022/10/11 05:55:39;;;;;;;18.50;9.98;;;;;;;;;;4975888;28;20062;-64
2022/10/11 05:58:05;;;;;;;14.90;8.43;;;;;;;;;;4975661;28;20102;-64
2022/10/11 06:00:32;;;;;;;18.85;8.85;;;;;;;;;;4974234;28;20037;-64
2022/10/11 06:02:58;;;;;;;19.10;7.47;;;;;;;;;;4975404;28;20446;-64
2022/10/11 06:05:24;;;;;;;13.30;6.93;;;;;;;;;;4963755;28;20451;-64
2022/10/11 06:07:50;;;;;;;15.38;7.20;;;;;;;;;;4965622;28;20121;-64
2022/10/11 06:10:16;;;;;;;14.05;7.00;;;;;;;;;;4964154;28;20074;-63
2022/10/11 06:12:42;;;;;;;12.68;6.60;;;;;;;;;;4959427;28;20543;-64
2022/10/11 06:15:10;;;;;;;16.67;7.30;;;;;;;;;;4955821;29;20048;-67
2022/10/11 06:17:36;;;;;;;16.88;6.75;;;;;;;;;;4955971;29;20031;-67
2022/10/11 06:20:02;;;;;;;16.90;6.95;;;;;;;;;;4957794;28;20027;-65
2022/10/11 06:22:28;;;;;;;13.27;6.13;;;;;;;;;;4964834;28;20027;-64
2022/10/11 06:24:54;;;;;;;17.02;7.20;;;;;;;;;;4963330;28;20027;-64
2022/10/11 06:27:21;;;;;;;15.75;6.85;;;;;;;;;;4960821;28;20146;-64
2022/10/11 06:29:47;;;;;;;12.48;6.38;;;;;;;;;;4963421;28;20055;-64
2022/10/11 06:32:13;;;;;;;12.82;6.68;;;;;;;;;;4964999;28;20490;-64
2022/10/11 06:34:39;;;;;;;13.90;7.22;;;;;;;;;;4963167;28;20398;-64
2022/10/11 06:37:05;;;;;;;16.00;6.72;;;;;;;;;;4964939;28;20038;-65
2022/10/11 06:39:31;;;;;;;12.85;6.20;;;;;;;;;;4964459;28;20038;-64
2022/10/11 06:41:57;;;;;;;12.05;5.85;;;;;;;;;;4963282;28;20484;-63
2022/10/11 06:44:23;;;;;;;14.32;5.80;;;;;;;;;;4964382;28;20102;-64
2022/10/11 06:46:49;;;;;;;9.73;5.78;;;;;;;;;;4962639;28;20513;-64
2022/10/11 06:49:15;;;;;;;10.13;5.65;;;;;;;;;;4963163;28;20482;-63
2022/10/11 06:51:41;;;;;;;11.60;5.70;;;;;;;;;;4964731;28;20031;-63
2022/10/11 06:54:07;;;;;;;11.13;6.20;;;;;;;;;;4963109;28;20031;-63
2022/10/11 06:56:33;;;;;;;13.07;5.97;;;;;;;;;;4963560;28;20498;-63
2022/10/11 06:59:00;;;;;;;15.27;6.22;;;;;;;;;;4964185;28;20165;-64
2022/10/11 07:01:26;;;;;;;13.52;6.05;;;;;;;;;;4962987;28;20035;-64
2022/10/11 07:03:53;;;;;;;13.05;5.88;;;;;;;;;;4973871;28;20093;-63
2022/10/11 07:06:20;;;;;;;14.80;6.20;;;;;;;;;;4963713;28;20075;-63
2022/10/11 07:08:46;;;;;;;9.85;6.25;;;;;;;;;;4967932;28;20034;-63
2022/10/11 07:11:14;;;;;;;16.80;6.15;;;;;;;;;;4963334;28;20513;-64
2022/10/11 07:13:41;;;;;;;20.98;6.82;;;;;;;;;;4962435;28;20526;-63
2022/10/11 07:16:08;;;;;;;18.92;6.75;;;;;;;;;;4963396;28;20047;-63
2022/10/11 07:18:34;;;;;;;15.02;6.10;;;;;;;;;;4962217;28;20359;-63
2022/10/11 07:21:05;;;;;;;11.52;6.50;;;;;;;;;;4962996;28;20030;-66
2022/10/11 07:23:31;;;;;;;11.90;6.50;;;;;;;;;;4964047;28;20024;-63
2022/10/11 07:25:57;;;;;;;16.10;6.60;;;;;;;;;;4963546;28;20030;-62
2022/10/11 07:28:23;;;;;;;15.18;6.72;;;;;;;;;;4963044;28;20059;-63
2022/10/11 07:30:49;;;;;;;11.93;6.50;;;;;;;;;;4961669;28;20623;-63
2022/10/11 07:33:15;;;;;;;15.95;6.85;;;;;;;;;;4945820;28;20043;-62
2022/10/11 07:35:41;;;;;;;15.50;7.00;;;;;;;;;;4962352;28;20085;-66
2022/10/11 07:38:08;;;;;;;16.70;7.47;;;;;;;;;;4962015;28;20038;-63
2022/10/11 07:40:41;;;;;;;13.75;6.47;;;;;;;;;;4963661;28;20030;-62
2022/10/11 07:43:07;;;;;;;11.93;6.65;;;;;;;;;;4963253;28;20023;-63
2022/10/11 07:45:33;;;;;;;11.60;7.15;;;;;;;;;;4961450;28;20395;-62
2022/10/11 07:47:59;;;;;;;14.68;7.53;;;;;;;;;;4963265;28;20015;-63
2022/10/11 07:50:26;;;;;;;15.20;7.10;;;;;;;;;;4962660;28;20023;-63
2022/10/11 07:52:52;;;;;;;13.02;6.82;;;;;;;;;;4944104;28;20376;-62
2022/10/11 07:55:18;;;;;;;16.85;7.10;;;;;;;;;;4963164;28;20412;-64
2022/10/11 07:57:44;;;;;;;17.70;7.57;;;;;;;;;;4962708;28;20027;-64
2022/10/11 08:00:10;;;;;;;18.33;7.95;;;;;;;;;;4960507;28;20043;-64
2022/10/11 08:02:36;;;;;;;19.35;8.25;;;;;;;;;;4962988;28;20118;-65
2022/10/11 08:05:02;;;;;;;15.18;6.95;;;;;;;;;;4966449;28;20114;-67
2022/10/11 08:07:28;;;;;;;14.60;7.50;;;;;;;;;;4972680;28;20165;-67
2022/10/11 08:09:55;;;;;;;16.95;8.32;;;;;;;;;;4967596;28;20026;-64
2022/10/11 08:12:21;;;;;;;14.90;7.70;;;;;;;;;;4958023;28;20059;-63
2022/10/11 08:14:47;;;;;;;21.40;8.45;;;;;;;;;;4962917;28;20043;-64
2022/10/11 09:10:32;;;;;;;14.52;7.75;;;;;;;;;;4939993;23;20153;-61
2022/10/11 09:12:58;;;;;;;17.50;8.13;;;;;;;;;;4952778;29;20035;-62
2022/10/11 09:15:24;;;;;;;16.35;8.65;;;;;;;;;;4952357;29;20047;-61
2022/10/11 09:17:56;;;;;;;12.77;8.73;;;;;;;;;;4952580;29;20367;-64
2022/10/11 09:20:25;;;;;;;16.02;8.55;;;;;;;;;;4952761;29;20122;-66
2022/10/11 09:23:00;;;;;;;17.58;8.23;;;;;;;;;;4952229;29;20043;-66
2022/10/11 09:25:45;;;;;;;21.67;9.52;;;;;;;;;;4953118;29;20046;-61
2022/10/11 09:28:12;;;;;;;19.33;8.55;;;;;;;;;;4952810;29;20028;-61
2022/10/11 09:30:46;;;;;;;17.65;9.13;;;;;;;;;;4952717;29;20074;-68
2022/10/11 09:33:31;;;;;;;15.98;9.45;;;;;;;;;;4935797;29;20765;-62
2022/10/11 09:35:58;;;;;;;22.58;10.32;;;;;;;;;;4952455;29;20043;-62
2022/10/11 09:38:35;;;;;;;15.73;9.95;;;;;;;;;;4952709;29;20042;-62
2022/10/11 09:41:09;;;;;;;18.80;10.15;;;;;;;;;;4952889;29;20110;-63
2022/10/11 09:43:35;;;;;;;22.50;10.18;;;;;;;;;;4952594;29;20019;-62
2022/10/11 09:46:01;;;;;;;18.10;9.60;;;;;;;;;;4934802;29;20067;-63
2022/10/11 09:48:32;;;;;;;19.88;9.90;;;;;;;;;;4952547;29;20027;-64
2022/10/11 09:51:02;;;;;;;32.20;10.48;;;;;;;;;;4952266;29;20070;-63
2022/10/11 09:53:47;;;;;;;19.15;10.40;;;;;;;;;;4952389;29;20032;-63
2022/10/11 09:56:13;;;;;;;18.80;10.25;;;;;;;;;;4952406;29;20058;-63
2022/10/11 09:58:39;;;;;;;18.88;10.05;;;;;;;;;;4952657;29;20023;-70
2022/10/11 10:01:07;;;;;;;20.48;10.70;;;;;;;;;;4952057;29;20031;-70
2022/10/11 10:03:37;;;;;;;20.25;10.05;;;;;;;;;;4952350;29;20042;-64
2022/10/11 10:06:13;;;;;;;22.80;10.18;;;;;;;;;;4952164;29;20383;-66
2022/10/11 10:08:41;;;;;;;22.80;10.95;;;;;;;;;;4958368;28;20046;-69
2022/10/11 10:11:08;;;;;;;21.02;10.40;;;;;;;;;;4971531;28;20026;-64
2022/10/11 10:13:42;;;;;;;18.90;9.70;;;;;;;;;;4971549;28;20081;-68
2022/10/11 10:16:18;;;;;;;23.40;10.45;;;;;;;;;;4971113;28;20043;-68
2022/10/11 10:18:53;;;;;;;20.65;10.52;;;;;;;;;;4971845;28;20034;-71
2022/10/11 10:21:25;;;;;;;19.00;9.98;;;;;;;;;;4971762;28;20042;-66
2022/10/11 10:23:54;;;;;;;20.45;10.30;;;;;;;;;;4974583;28;20038;-62
2022/10/11 10:26:21;;;;;;;23.77;10.65;;;;;;;;;;4974999;28;20104;-71
2022/10/11 10:28:59;;;;;;;22.35;11.20;;;;;;;;;;4974834;28;20486;-63
2022/10/11 10:31:56;;;;;;;21.42;10.45;;;;;;;;;;4974619;28;20042;-62
2022/10/11 10:34:32;;;;;;;15.05;9.65;;;;;;;;;;4877463;29;20441;-72
2022/10/11 10:37:19;;;;;;;16.80;10.00;;;;;;;;;;4877513;29;20041;-67
2022/10/11 10:39:47;;;;;;;21.17;10.43;;;;;;;;;;4877452;29;20485;-70
2022/10/11 10:42:15;;;;;;;21.27;11.27;;;;;;;;;;4877204;29;20069;-70
2022/10/11 10:44:42;;;;;;;18.83;11.50;;;;;;;;;;4877058;29;20057;-62
2022/10/11 10:47:09;;;;;;;21.58;10.65;;;;;;;;;;4877525;29;20033;-70
2022/10/11 10:49:39;;;;;;;20.15;10.43;;;;;;;;;;4877276;29;20442;-64
2022/10/11 10:52:08;;;;;;;18.77;11.43;;;;;;;;;;4876678;29;20036;-70
2022/10/11 10:54:52;;;;;;;20.65;12.18;;;;;;;;;;4876327;29;20120;-70
2022/10/11 10:57:39;;;;;;;22.10;12.52;;;;;;;;;;4877281;29;20498;-67
2022/10/11 11:00:15;;;;;;;20.20;12.57;;;;;;;;;;4869356;29;20132;-64
2022/10/11 11:02:41;;;;;;;20.20;12.20;;;;;;;;;;4877262;29;20025;-62
2022/10/11 11:05:15;;;;;;;21.38;12.50;;;;;;;;;;4877232;29;20068;-65
2022/10/11 11:07:51;;;;;;;23.63;13.35;;;;;;;;;;4876879;29;20063;-68
2022/10/11 11:10:30;;;;;;;27.50;13.15;;;;;;;;;;4905954;28;20113;-68
2022/10/11 11:12:59;;;;;;;22.67;13.77;;;;;;;;;;4973882;28;20750;-64
2022/10/11 11:15:25;;;;;;;24.20;13.95;;;;;;;;;;4973843;28;20133;-69
2022/10/11 11:17:57;;;;;;;23.00;13.93;;;;;;;;;;4973687;28;20134;-72
2022/10/11 11:20:23;;;;;;;;;;;;;;;;;;4971006;28;20031;-69
2022/10/11 11:23:01;;;;;;;23.95;14.32;;;;;;;;;;4972074;28;20362;-63
2022/10/11 11:25:43;;;;;;;25.90;16.30;;;;;;;;;;4972361;28;20034;-74
2022/10/11 11:28:24;;;;;;;24.88;15.43;;;;;;;;;;4965329;28;20475;-69
2022/10/11 11:30:53;;;;;;;30.15;18.65;;;;;;;;;;4970963;28;20073;-69
2022/10/11 11:33:22;;;;;;;31.35;18.83;;;;;;;;;;4973248;28;20057;-65
2022/10/11 11:35:51;;;;;;;36.78;24.08;;;;;;;;;;4972240;28;20039;-66
2022/10/11 11:38:32;;;;;;;40.85;23.98;;;;;;;;;;4973567;28;20027;-68
2022/10/11 11:41:01;;;;;;;35.63;22.92;;;;;;;;;;4973841;28;20391;-70
2022/10/11 11:43:56;;;;;;;39.63;23.50;;;;;;;;;;4973304;28;20023;-64
2022/10/11 11:46:26;;;;;;;41.33;24.00;;;;;;;;;;4888823;29;20045;-68
2022/10/11 11:48:53;;;;;;;40.55;24.20;;;;;;;;;;4879542;29;20032;-64
2022/10/11 11:51:23;;;;;;;42.25;24.90;;;;;;;;;;4894874;29;20045;-69
2022/10/11 11:53:58;;;;;;;38.75;24.17;;;;;;;;;;4894908;29;20039;-63
2022/10/11 11:56:31;;;;;;;39.00;23.27;;;;;;;;;;4892808;29;20048;-66
2022/10/11 11:59:02;;;;;;;39.13;24.23;;;;;;;;;;4893206;29;20029;-64
2022/10/11 12:01:37;;;;;;;42.77;28.17;;;;;;;;;;4892045;29;20043;-68
2022/10/11 12:04:06;;;;;;;41.50;24.58;;;;;;;;;;4893223;29;20163;-62
2022/10/11 12:06:36;;;;;;;39.33;24.48;;;;;;;;;;4893609;29;20108;-67
2022/10/11 12:09:29;;;;;;;48.60;29.63;;;;;;;;;;4893173;29;20048;-64
2022/10/11 12:11:57;;;;;;;49.65;28.70;;;;;;;;;;4891186;29;20052;-63
2022/10/11 12:14:29;;;;;;;48.83;30.50;;;;;;;;;;4893950;29;20376;-68
2022/10/11 12:17:25;;;;;;;48.95;30.02;;;;;;;;;;4894423;29;20056;-67
2022/10/11 12:20:10;;;;;;;45.22;28.85;;;;;;;;;;4838846;29;20041;-64
2022/10/11 12:22:38;;;;;;;44.65;28.42;;;;;;;;;;4852620;29;20037;-62
2022/10/11 12:25:12;;;;;;;52.35;29.52;;;;;;;;;;4875702;29;20041;-68
2022/10/11 12:27:45;;;;;;;48.30;29.50;;;;;;;;;;4872686;29;20574;-72
2022/10/11 12:30:30;;;;;;;47.58;28.83;;;;;;;;;;4874319;29;20164;-63
2022/10/11 12:33:04;;;;;;;47.03;28.73;;;;;;;;;;4872080;29;20048;-61
2022/10/11 12:35:31;;;;;;;51.00;29.40;;;;;;;;;;4877094;29;20072;-65
2022/10/11 12:38:15;;;;;;;50.10;30.45;;;;;;;;;;4860934;29;20033;-63
2022/10/11 12:40:42;;;;;;;34.97;22.27;;;;;;;;;;4875010;29;20045;-68
2022/10/11 12:43:11;;;;;;;28.65;17.17;;;;;;;;;;4873975;29;20044;-66
2022/10/11 12:45:37;;;;;;;28.15;17.15;;;;;;;;;;4857902;29;20853;-68
2022/10/11 12:48:06;;;;;;;27.25;17.10;;;;;;;;;;4874136;29;20089;-62
2022/10/11 12:50:54;;;;;;;27.27;16.85;;;;;;;;;;4874313;29;20711;-66
2022/10/11 12:53:26;;;;;;;29.90;17.02;;;;;;;;;;4875171;29;20123;-64
2022/10/11 12:56:11;;;;;;;26.95;17.33;;;;;;;;;;4903679;28;20106;-62
2022/10/11 12:58:40;;;;;;;27.48;16.70;;;;;;;;;;4973302;28;20035;-65
2022/10/11 13:01:06;;;;;;;29.42;17.15;;;;;;;;;;4957944;28;20023;-66
2022/10/11 13:03:36;;;;;;;33.20;19.38;;;;;;;;;;4972396;28;20054;-64
2022/10/11 13:06:11;;;;;;;27.98;18.05;;;;;;;;;;4972558;28;20027;-62
2022/10/11 13:08:38;;;;;;;35.22;19.73;;;;;;;;;;4980628;28;20070;-61
2022/10/11 13:11:05;;;;;;;31.25;20.42;;;;;;;;;;4991623;28;20302;-65
2022/10/11 13:13:34;;;;;;;29.88;19.05;;;;;;;;;;4991560;28;20018;-65
2022/10/11 13:16:03;;;;;;;28.08;17.75;;;;;;;;;;4991487;28;20129;-64
2022/10/11 13:18:29;;;;;;;30.10;17.80;;;;;;;;;;4991628;28;20030;-65
2022/10/11 13:20:55;;;;;;;28.17;17.33;;;;;;;;;;4990998;28;20022;-63
2022/10/11 13:23:23;;;;;;;26.25;17.60;;;;;;;;;;4991166;28;20029;-67
2022/10/11 13:25:50;;;;;;;28.05;17.48;;;;;;;;;;4991805;28;20718;-64
2022/10/11 13:28:17;;;;;;;30.05;18.08;;;;;;;;;;4991186;28;20153;-65
2022/10/11 13:30:44;;;;;;;32.70;19.13;;;;;;;;;;4991704;28;20744;-67
2022/10/11 13:33:17;;;;;;;34.10;19.48;;;;;;;;;;4991490;28;20023;-60
2022/10/11 13:35:43;;;;;;;;;;;;;;;;;;4991757;28;20047;-59
2022/10/11 17:18:28;;;;;;;130.75;71.35;;;;;;;;;;5056681;23;20142;-66
2022/10/11 17:21:01;;;;;;;120.93;69.65;;;;;;;;;;4952855;29;20505;-59
2022/10/11 17:23:28;;;;;;;133.10;75.50;;;;;;;;;;4952471;29;20930;-65
2022/10/11 17:25:54;;;;;;;137.85;73.20;;;;;;;;;;4952477;28;20074;-63
2022/10/11 17:28:20;;;;;;;129.55;73.22;;;;;;;;;;4952712;29;20035;-58
2022/10/11 17:30:56;;;;;;;116.00;67.88;;;;;;;;;;4951629;28;20086;-62
2022/10/11 17:33:25;;;;;;;108.53;65.28;;;;;;;;;;4956206;29;20114;-58
2022/10/11 17:35:51;;;;;;;112.10;65.43;;;;;;;;;;4956311;29;20066;-58
2022/10/11 17:38:18;;;;;;;111.50;65.32;;;;;;;;;;4956035;29;20090;-67
2022/10/11 17:40:45;;;;;;;116.10;65.32;;;;;;;;;;4958286;28;20491;-62
2022/10/11 17:43:11;;;;;;;117.07;67.82;;;;;;;;;;4957863;28;20027;-58
2022/10/11 17:45:37;;;;;;;113.63;65.28;;;;;;;;;;4975185;28;20086;-57
2022/10/11 17:48:03;;;;;;;112.35;65.60;;;;;;;;;;4975186;28;20368;-68
2022/10/11 17:50:30;;;;;;;107.72;61.38;;;;;;;;;;4974610;28;20409;-58
2022/10/11 17:52:57;;;;;;;113.75;67.13;;;;;;;;;;4974693;28;20027;-58
2022/10/11 17:55:23;;;;;;;108.95;64.50;;;;;;;;;;4974941;28;20026;-59
2022/10/11 17:57:49;;;;;;;119.50;67.03;;;;;;;;;;4975091;28;20668;-58
2022/10/11 18:00:16;;;;;;;116.05;67.32;;;;;;;;;;4975227;28;20398;-59
2022/10/11 18:02:42;;;;;;;112.72;68.20;;;;;;;;;;4957198;28;20560;-58
2022/10/11 18:05:08;;;;;;;112.82;67.07;;;;;;;;;;4957100;28;20038;-57
2022/10/11 18:07:34;;;;;;;116.30;67.90;;;;;;;;;;4974964;28;20154;-59
2022/10/11 18:10:00;;;;;;;112.60;67.93;;;;;;;;;;4974673;28;20053;-58
2022/10/11 18:12:26;;;;;;;108.90;66.65;;;;;;;;;;4975056;28;20113;-63
2022/10/11 18:14:52;;;;;;;116.82;67.78;;;;;;;;;;4974736;28;20023;-58
2022/10/11 18:17:18;;;;;;;116.93;67.30;;;;;;;;;;4966935;28;20426;-59
2022/10/11 18:19:44;;;;;;;113.78;67.03;;;;;;;;;;4955487;29;20506;-65
2022/10/11 18:22:10;;;;;;;123.80;71.18;;;;;;;;;;4954225;29;20833;-59
2022/10/11 18:24:37;;;;;;;122.20;70.05;;;;;;;;;;4954678;29;20027;-58
2022/10/11 18:27:03;;;;;;;118.70;70.90;;;;;;;;;;4954630;29;20062;-59
2022/10/11 18:29:29;;;;;;;120.10;71.43;;;;;;;;;;4955152;29;20024;-69
2022/10/11 18:31:55;;;;;;;123.38;74.15;;;;;;;;;;4954700;29;20046;-60
2022/10/11 18:34:21;;;;;;;130.65;76.07;;;;;;;;;;4954899;29;20034;-58
2022/10/11 18:36:47;;;;;;;120.72;73.00;;;;;;;;;;4955470;29;20427;-58
2022/10/11 18:39:14;;;;;;;124.97;72.75;;;;;;;;;;4955260;29;20478;-57
2022/10/11 18:41:43;;;;;;;122.68;72.63;;;;;;;;;;4955020;29;20459;-58
2022/10/11 18:44:12;;;;;;;125.47;74.93;;;;;;;;;;4954379;28;20032;-59
2022/10/11 18:46:39;;;;;;;127.03;75.25;;;;;;;;;;4954539;29;20090;-59
2022/10/11 18:49:05;;;;;;;127.70;78.10;;;;;;;;;;4954256;29;20054;-58
2022/10/11 18:51:33;;;;;;;125.13;76.93;;;;;;;;;;4955301;29;20090;-58
2022/10/11 18:54:00;;;;;;;130.15;77.13;;;;;;;;;;4954973;29;20041;-58
2022/10/11 18:56:26;;;;;;;124.43;75.78;;;;;;;;;;4955299;29;20039;-59
2022/10/11 18:58:53;;;;;;;127.43;75.60;;;;;;;;;;4954513;29;20027;-57
2022/10/11 19:01:20;;;;;;;125.57;74.80;;;;;;;;;;4954055;29;20066;-70
2022/10/11 19:03:48;;;;;;;122.78;74.75;;;;;;;;;;4954839;29;20042;-68
2022/10/11 19:06:18;;;;;;;126.68;76.13;;;;;;;;;;4954854;29;20094;-58
2022/10/11 19:08:48;;;;;;;125.38;74.05;;;;;;;;;;4954624;29;20023;-59
2022/10/11 19:11:14;;;;;;;130.02;79.75;;;;;;;;;;4954708;29;20042;-59
2022/10/11 19:13:41;;;;;;;131.13;74.68;;;;;;;;;;4954846;29;20042;-73
2022/10/11 19:16:10;;;;;;;125.55;76.68;;;;;;;;;;4953022;29;20054;-57
2022/10/11 19:18:36;;;;;;;125.43;74.60;;;;;;;;;;4972011;28;20058;-64
2022/10/11 19:21:03;;;;;;;123.90;75.13;;;;;;;;;;4973962;28;20396;-66
2022/10/11 19:23:38;;;;;;;121.53;75.00;;;;;;;;;;4974123;28;20031;-57
2022/10/11 19:26:04;;;;;;;126.07;73.40;;;;;;;;;;4974316;28;20073;-72
2022/10/11 19:28:30;;;;;;;128.20;74.30;;;;;;;;;;4974184;28;20031;-71
2022/10/11 19:31:06;;;;;;;130.90;77.50;;;;;;;;;;4973841;28;20035;-63
2022/10/11 19:33:32;;;;;;;124.32;74.45;;;;;;;;;;4973819;28;20027;-65
2022/10/11 19:36:01;;;;;;;123.93;74.07;;;;;;;;;;4973780;28;20069;-67
2022/10/11 19:38:27;;;;;;;121.35;73.97;;;;;;;;;;4973658;28;20037;-59
2022/10/11 19:40:53;;;;;;;137.27;79.13;;;;;;;;;;4973598;28;20038;-59
2022/10/11 19:43:19;;;;;;;124.95;73.40;;;;;;;;;;4973761;28;20026;-61
2022/10/11 19:45:45;;;;;;;124.97;74.75;;;;;;;;;;4973072;28;20035;-65
2022/10/11 19:48:11;;;;;;;131.73;77.38;;;;;;;;;;4973579;28;20034;-64
2022/10/11 19:50:37;;;;;;;132.57;79.82;;;;;;;;;;4973329;28;20030;-58
2022/10/11 19:53:03;;;;;;;130.57;80.22;;;;;;;;;;4973323;28;20030;-59
2022/10/11 19:55:29;;;;;;;133.60;79.78;;;;;;;;;;4972506;28;20043;-59
2022/10/11 19:57:55;;;;;;;124.38;74.35;;;;;;;;;;4973729;28;20057;-65
2022/10/11 20:00:21;;;;;;;128.05;75.70;;;;;;;;;;4973245;28;20031;-68
2022/10/11 20:02:48;;;;;;;123.32;74.78;;;;;;;;;;4972982;28;20036;-60
2022/10/11 20:05:14;;;;;;;123.50;75.60;;;;;;;;;;4972980;28;20037;-70
2022/10/11 20:07:40;;;;;;;129.98;76.65;;;;;;;;;;4973132;28;20023;-67
2022/10/11 20:10:06;;;;;;;133.60;78.38;;;;;;;;;;4973206;28;20041;-62
2022/10/11 20:12:32;;;;;;;130.85;76.88;;;;;;;;;;4973008;28;20090;-72
2022/10/11 20:14:58;;;;;;;132.82;77.75;;;;;;;;;;4972882;28;20035;-60
2022/10/11 20:17:46;;;;;;;127.80;77.20;;;;;;;;;;4964197;28;20406;-64
2022/10/11 20:20:10;;;;;;;132.15;79.63;;;;;;;;;;4953333;29;20066;-70
2022/10/11 20:22:37;;;;;;;126.93;76.22;;;;;;;;;;4953880;29;20049;-60
2022/10/11 20:25:03;;;;;;;121.43;74.72;;;;;;;;;;4953850;28;20055;-60
2022/10/11 20:27:30;;;;;;;124.65;75.45;;;;;;;;;;4953790;29;20058;-71
2022/10/11 20:29:56;;;;;;;131.07;77.57;;;;;;;;;;4953636;29;20035;-60
2022/10/11 20:32:23;;;;;;;124.50;76.10;;;;;;;;;;4953296;29;20063;-66
2022/10/11 20:34:49;;;;;;;124.05;77.20;;;;;;;;;;4953697;29;20031;-67
2022/10/11 20:37:15;;;;;;;117.95;74.82;;;;;;;;;;4953588;29;20031;-60
2022/10/11 20:39:41;;;;;;;122.15;75.47;;;;;;;;;;4937568;29;20067;-69
2022/10/11 20:42:07;;;;;;;120.18;70.95;;;;;;;;;;4933899;29;20032;-69
2022/10/11 20:44:33;;;;;;;116.88;69.53;;;;;;;;;;4933991;29;20032;-68
2022/10/11 20:46:59;;;;;;;118.45;69.72;;;;;;;;;;4933407;29;20153;-61
2022/10/11 20:49:25;;;;;;;125.75;75.75;;;;;;;;;;4932674;29;20031;-64
2022/10/11 20:51:51;;;;;;;123.10;72.38;;;;;;;;;;4933074;29;20106;-70
2022/10/11 20:54:17;;;;;;;125.50;73.28;;;;;;;;;;4933490;29;20098;-70
2022/10/11 20:56:43;;;;;;;118.47;73.40;;;;;;;;;;4933279;29;20035;-67
2022/10/11 20:59:09;;;;;;;119.63;70.13;;;;;;;;;;4932283;29;20054;-70
2022/10/11 21:01:37;;;;;;;111.28;70.22;;;;;;;;;;4933418;29;20086;-70
2022/10/11 21:04:04;;;;;;;113.60;68.32;;;;;;;;;;4931074;29;20474;-62
2022/10/11 21:06:31;;;;;;;117.53;71.18;;;;;;;;;;4952810;28;20054;-70
2022/10/11 21:09:00;;;;;;;120.40;71.72;;;;;;;;;;4953048;29;20431;-61
2022/10/11 21:11:31;;;;;;;118.95;72.50;;;;;;;;;;4935533;29;20043;-74
2022/10/11 21:13:57;;;;;;;120.85;73.28;;;;;;;;;;4952978;29;20023;-68
2022/10/11 21:16:25;;;;;;;118.03;69.70;;;;;;;;;;4952732;28;20078;-70
2022/10/11 21:18:53;;;;;;;117.43;70.35;;;;;;;;;;4972085;28;20031;-67
2022/10/11 21:21:19;;;;;;;123.90;72.57;;;;;;;;;;4971892;28;20118;-72
2022/10/11 21:23:45;;;;;;;119.32;71.45;;;;;;;;;;4972132;28;20037;-73
2022/10/11 21:26:12;;;;;;;116.95;69.90;;;;;;;;;;4972280;28;20117;-71
2022/10/11 21:28:39;;;;;;;106.90;66.05;;;;;;;;;;4971499;28;20019;-66
2022/10/11 21:31:10;;;;;;;105.25;65.50;;;;;;;;;;4971972;28;20051;-71
2022/10/11 21:33:36;;;;;;;108.00;65.25;;;;;;;;;;4971544;28;20136;-60
2022/10/11 21:36:03;;;;;;;100.03;64.68;;;;;;;;;;4972005;28;20035;-70
2022/10/11 21:38:29;;;;;;;100.07;64.50;;;;;;;;;;4972214;28;20022;-61
2022/10/11 21:40:55;;;;;;;96.03;62.72;;;;;;;;;;4971773;28;20058;-70
2022/10/11 21:43:21;;;;;;;102.32;63.67;;;;;;;;;;4971971;28;20046;-64
2022/10/11 21:45:47;;;;;;;97.80;62.55;;;;;;;;;;4971883;28;20074;-58
2022/10/11 21:48:13;;;;;;;102.63;62.63;;;;;;;;;;4971878;28;20027;-71
2022/10/11 21:50:39;;;;;;;103.35;63.35;;;;;;;;;;4971996;28;20099;-71
2022/10/11 21:53:05;;;;;;;102.10;64.63;;;;;;;;;;4971798;28;20023;-69
2022/10/11 21:55:31;;;;;;;104.43;63.80;;;;;;;;;;4965132;28;20110;-71
2022/10/11 21:57:57;;;;;;;99.13;63.22;;;;;;;;;;4951525;29;20046;-59
2022/10/11 22:00:23;;;;;;;104.53;65.15;;;;;;;;;;4952466;29;20028;-59
2022/10/11 22:02:51;;;;;;;108.10;65.38;;;;;;;;;;4951715;29;20102;-71
2022/10/11 22:05:17;;;;;;;100.35;63.75;;;;;;;;;;4951252;29;20167;-69
2022/10/11 22:07:44;;;;;;;100.35;63.92;;;;;;;;;;4935198;29;20113;-69
2022/10/11 22:10:10;;;;;;;107.97;67.50;;;;;;;;;;4952621;29;20023;-65
2022/10/11 22:12:36;;;;;;;101.90;62.58;;;;;;;;;;4952686;29;20038;-59
2022/10/11 22:15:02;;;;;;;101.65;64.50;;;;;;;;;;4951428;29;20035;-69
2022/10/11 22:17:28;;;;;;;101.25;62.95;;;;;;;;;;4951905;28;20083;-65
2022/10/11 22:19:54;;;;;;;97.80;63.17;;;;;;;;;;4955410;29;20038;-63
2022/10/11 22:22:20;;;;;;;103.15;61.92;;;;;;;;;;4955432;29;20035;-59
2022/10/11 22:24:46;;;;;;;102.38;62.70;;;;;;;;;;4955336;29;20122;-68
2022/10/11 22:27:12;;;;;;;99.38;64.95;;;;;;;;;;4955339;29;20075;-59
2022/10/11 22:29:38;;;;;;;98.90;64.53;;;;;;;;;;4955617;29;20024;-69
2022/10/11 22:32:04;;;;;;;99.35;63.95;;;;;;;;;;4955669;29;20059;-60
2022/10/11 22:34:31;;;;;;;105.97;64.35;;;;;;;;;;4955371;29;20031;-62
2022/10/11 22:36:57;;;;;;;101.05;64.78;;;;;;;;;;4955580;29;20513;-71
2022/10/11 22:39:23;;;;;;;98.38;63.28;;;;;;;;;;4955670;29;20077;-66
2022/10/11 22:41:49;;;;;;;96.00;61.80;;;;;;;;;;4955211;29;20034;-59
2022/10/11 22:44:15;;;;;;;100.15;62.63;;;;;;;;;;4955132;29;20107;-63
2022/10/11 22:46:41;;;;;;;100.97;60.80;;;;;;;;;;4954562;29;20466;-60
2022/10/11 22:49:07;;;;;;;100.18;62.67;;;;;;;;;;4955312;29;20503;-58
2022/10/11 22:51:33;;;;;;;97.78;63.15;;;;;;;;;;4955338;29;20031;-58
2022/10/11 22:54:00;;;;;;;103.07;63.83;;;;;;;;;;4955510;29;20102;-60
